sensor_id;sensor_type;location;lat;lon;timestamp;temperature;humidity
23729;DHT22;12045;60.214;24.724;2022-10-16T00:01:24;11.80;99.90
23729;DHT22;12045;60.214;24.724;2022-10-16T00:03:52;11.80;99.90
23729;DHT22;12045;60.214;24.724;2022-10-16T00:06:21;11.80;99.90
23729;DHT22;12045;60.214;24.724;2022-10-16T00:08:49;11.70;99.90
23729;DHT22;12045;60.214;24.724;2022-10-16T00:11:23;11.70;99.90
23729;DHT22;12045;60.214;24.724;2022-10-16T00:13:58;11.70;99.90
23729;DHT22;12045;60.214;24.724;2022-10-16T00:16:27;11.70;99.90
23729;DHT22;12045;60.214;24.724;2022-10-16T00:18:55;11.70;99.90
23729;DHT22;12045;60.214;24.724;2022-10-16T00:21:25;11.70;99.90
23729;DHT22;12045;60.214;24.724;2022-10-16T00:23:59;11.90;99.90
23729;DHT22;12045;60.214;24.724;2022-10-16T00:26:29;11.70;99.90
23729;DHT22;12045;60.214;24.724;2022-10-16T00:28:57;11.60;99.90
23729;DHT22;12045;60.214;24.724;2022-10-16T00:31:25;11.70;99.90
23729;DHT22;12045;60.214;24.724;2022-10-16T00:33:53;11.70;99.90
23729;DHT22;12045;60.214;24.724;2022-10-16T00:36:22;11.70;99.90
23729;DHT22;12045;60.214;24.724;2022-10-16T00:38:52;11.70;99.90
23729;DHT22;12045;60.214;24.724;2022-10-16T00:41:22;11.60;99.90
23729;DHT22;12045;60.214;24.724;2022-10-16T00:43:53;11.60;99.90
23729;DHT22;12045;60.214;24.724;2022-10-16T00:46:23;11.60;99.90
23729;DHT22;12045;60.214;24.724;2022-10-16T00:49:04;11.60;99.90
23729;DHT22;12045;60.214;24.724;2022-10-16T00:51:40;11.50;99.90
23729;DHT22;12045;60.214;24.724;2022-10-16T00:54:26;11.50;99.90
23729;DHT22;12045;60.214;24.724;2022-10-16T00:56:55;11.50;99.90
23729;DHT22;12045;60.214;24.724;2022-10-16T00:59:30;11.60;99.90
23729;DHT22;12045;60.214;24.724;2022-10-16T01:01:58;11.50;99.90
23729;DHT22;12045;60.214;24.724;2022-10-16T01:04:31;11.50;99.90
23729;DHT22;12045;60.214;24.724;2022-10-16T01:13:35;11.60;99.90
23729;DHT22;12045;60.214;24.724;2022-10-16T01:18:44;11.50;99.90
23729;DHT22;12045;60.214;24.724;2022-10-16T01:21:13;11.50;99.90
23729;DHT22;12045;60.214;24.724;2022-10-16T01:23:48;11.50;99.90
23729;DHT22;12045;60.214;24.724;2022-10-16T01:26:27;11.50;99.90
23729;DHT22;12045;60.214;24.724;2022-10-16T01:29:21;11.50;99.90
23729;DHT22;12045;60.214;24.724;2022-10-16T01:32:00;11.50;99.90
23729;DHT22;12045;60.214;24.724;2022-10-16T01:34:37;11.40;99.90
23729;DHT22;12045;60.214;24.724;2022-10-16T01:37:11;11.40;99.90
23729;DHT22;12045;60.214;24.724;2022-10-16T01:39:42;11.40;99.90
23729;DHT22;12045;60.214;24.724;2022-10-16T01:42:20;11.70;99.90
23729;DHT22;12045;60.214;24.724;2022-10-16T01:44:49;11.40;99.90
23729;DHT22;12045;60.214;24.724;2022-10-16T01:47:21;11.40;99.90
23729;DHT22;12045;60.214;24.724;2022-10-16T01:49:52;11.40;99.90
23729;DHT22;12045;60.214;24.724;2022-10-16T01:52:23;11.40;99.90
23729;DHT22;12045;60.214;24.724;2022-10-16T01:54:55;11.40;99.90
23729;DHT22;12045;60.214;24.724;2022-10-16T01:57:24;11.30;99.90
23729;DHT22;12045;60.214;24.724;2022-10-16T01:59:57;11.40;99.90
23729;DHT22;12045;60.214;24.724;2022-10-16T02:02:27;11.40;99.90
23729;DHT22;12045;60.214;24.724;2022-10-16T02:05:00;11.40;99.90
23729;DHT22;12045;60.214;24.724;2022-10-16T02:07:29;11.40;99.90
23729;DHT22;12045;60.214;24.724;2022-10-16T02:09:56;11.50;99.90
23729;DHT22;12045;60.214;24.724;2022-10-16T02:12:26;11.40;99.90
23729;DHT22;12045;60.214;24.724;2022-10-16T02:14:55;11.40;99.90
23729;DHT22;12045;60.214;24.724;2022-10-16T02:17:22;11.40;99.90
23729;DHT22;12045;60.214;24.724;2022-10-16T02:19:52;11.50;99.90
23729;DHT22;12045;60.214;24.724;2022-10-16T02:22:30;11.50;99.90
23729;DHT22;12045;60.214;24.724;2022-10-16T02:27:38;11.50;99.90
23729;DHT22;12045;60.214;24.724;2022-10-16T02:30:09;11.50;99.90
23729;DHT22;12045;60.214;24.724;2022-10-16T02:32:42;11.50;99.90
23729;DHT22;12045;60.214;24.724;2022-10-16T02:35:12;11.50;99.90
23729;DHT22;12045;60.214;24.724;2022-10-16T02:37:41;11.50;99.90
23729;DHT22;12045;60.214;24.724;2022-10-16T02:40:09;11.50;99.90
23729;DHT22;12045;60.214;24.724;2022-10-16T02:42:39;11.50;99.90
23729;DHT22;12045;60.214;24.724;2022-10-16T02:45:09;11.60;99.90
23729;DHT22;12045;60.214;24.724;2022-10-16T02:47:37;11.60;99.90
23729;DHT22;12045;60.214;24.724;2022-10-16T02:50:05;11.70;99.90
23729;DHT22;12045;60.214;24.724;2022-10-16T02:52:33;11.70;99.90
23729;DHT22;12045;60.214;24.724;2022-10-16T02:55:00;11.70;99.90
23729;DHT22;12045;60.214;24.724;2022-10-16T02:57:28;11.70;99.90
23729;DHT22;12045;60.214;24.724;2022-10-16T02:59:56;11.70;99.90
23729;DHT22;12045;60.214;24.724;2022-10-16T03:02:23;11.70;99.90
23729;DHT22;12045;60.214;24.724;2022-10-16T03:04:51;11.70;99.90
23729;DHT22;12045;60.214;24.724;2022-10-16T03:07:18;11.70;99.90
23729;DHT22;12045;60.214;24.724;2022-10-16T03:09:46;11.80;99.90
23729;DHT22;12045;60.214;24.724;2022-10-16T03:12:13;11.80;99.90
23729;DHT22;12045;60.214;24.724;2022-10-16T03:14:40;11.80;99.90
23729;DHT22;12045;60.214;24.724;2022-10-16T03:17:08;11.80;99.90
23729;DHT22;12045;60.214;24.724;2022-10-16T03:19:35;11.80;99.90
23729;DHT22;12045;60.214;24.724;2022-10-16T03:22:03;11.70;99.90
23729;DHT22;12045;60.214;24.724;2022-10-16T03:24:31;11.60;99.90
23729;DHT22;12045;60.214;24.724;2022-10-16T03:26:58;11.70;99.90
23729;DHT22;12045;60.214;24.724;2022-10-16T03:29:26;11.70;99.90
23729;DHT22;12045;60.214;24.724;2022-10-16T03:31:55;11.70;99.90
23729;DHT22;12045;60.214;24.724;2022-10-16T03:34:22;11.60;99.90
23729;DHT22;12045;60.214;24.724;2022-10-16T03:36:50;11.60;99.90
23729;DHT22;12045;60.214;24.724;2022-10-16T03:39:18;11.60;99.90
23729;DHT22;12045;60.214;24.724;2022-10-16T03:41:46;11.60;99.90
23729;DHT22;12045;60.214;24.724;2022-10-16T03:44:14;11.50;99.90
23729;DHT22;12045;60.214;24.724;2022-10-16T03:46:42;11.50;99.90
23729;DHT22;12045;60.214;24.724;2022-10-16T03:49:09;11.50;99.90
23729;DHT22;12045;60.214;24.724;2022-10-16T03:51:36;11.70;99.90
23729;DHT22;12045;60.214;24.724;2022-10-16T03:54:04;11.50;99.90
23729;DHT22;12045;60.214;24.724;2022-10-16T03:56:31;11.40;99.90
23729;DHT22;12045;60.214;24.724;2022-10-16T03:58:59;11.40;99.90
23729;DHT22;12045;60.214;24.724;2022-10-16T04:01:26;11.40;99.90
23729;DHT22;12045;60.214;24.724;2022-10-16T04:03:54;11.30;99.90
23729;DHT22;12045;60.214;24.724;2022-10-16T04:06:21;11.30;99.90
23729;DHT22;12045;60.214;24.724;2022-10-16T04:08:49;11.20;99.90
23729;DHT22;12045;60.214;24.724;2022-10-16T04:11:16;11.20;99.90
23729;DHT22;12045;60.214;24.724;2022-10-16T04:13:43;11.10;99.90
23729;DHT22;12045;60.214;24.724;2022-10-16T04:16:11;11.10;99.90
23729;DHT22;12045;60.214;24.724;2022-10-16T04:18:38;11.10;99.90
23729;DHT22;12045;60.214;24.724;2022-10-16T04:21:06;11.10;99.90
23729;DHT22;12045;60.214;24.724;2022-10-16T04:23:34;11.10;99.90
23729;DHT22;12045;60.214;24.724;2022-10-16T04:26:01;11.10;99.90
23729;DHT22;12045;60.214;24.724;2022-10-16T04:28:29;11.10;99.90
23729;DHT22;12045;60.214;24.724;2022-10-16T04:30:57;11.10;99.90
23729;DHT22;12045;60.214;24.724;2022-10-16T04:33:25;11.10;99.90
23729;DHT22;12045;60.214;24.724;2022-10-16T04:35:59;11.20;99.90
23729;DHT22;12045;60.214;24.724;2022-10-16T04:38:27;11.10;99.90
23729;DHT22;12045;60.214;24.724;2022-10-16T04:40:55;11.10;99.90
23729;DHT22;12045;60.214;24.724;2022-10-16T04:43:23;11.00;99.90
23729;DHT22;12045;60.214;24.724;2022-10-16T04:45:51;11.00;99.90
23729;DHT22;12045;60.214;24.724;2022-10-16T04:48:18;11.10;99.90
23729;DHT22;12045;60.214;24.724;2022-10-16T04:50:46;11.00;99.90
23729;DHT22;12045;60.214;24.724;2022-10-16T04:53:21;11.10;99.90
23729;DHT22;12045;60.214;24.724;2022-10-16T04:55:49;11.00;99.90
23729;DHT22;12045;60.214;24.724;2022-10-16T04:58:17;11.10;99.90
23729;DHT22;12045;60.214;24.724;2022-10-16T05:00:44;11.10;99.90
23729;DHT22;12045;60.214;24.724;2022-10-16T05:03:13;11.10;99.90
23729;DHT22;12045;60.214;24.724;2022-10-16T05:05:45;11.10;99.90
23729;DHT22;12045;60.214;24.724;2022-10-16T05:08:13;11.10;99.90
23729;DHT22;12045;60.214;24.724;2022-10-16T05:10:42;11.00;99.90
23729;DHT22;12045;60.214;24.724;2022-10-16T05:13:11;11.00;99.90
23729;DHT22;12045;60.214;24.724;2022-10-16T05:15:38;11.10;99.90
23729;DHT22;12045;60.214;24.724;2022-10-16T05:18:06;11.30;99.90
23729;DHT22;12045;60.214;24.724;2022-10-16T05:20:33;11.10;99.90
23729;DHT22;12045;60.214;24.724;2022-10-16T05:23:00;11.10;99.90
23729;DHT22;12045;60.214;24.724;2022-10-16T05:25:28;11.10;99.90
23729;DHT22;12045;60.214;24.724;2022-10-16T05:27:55;11.20;99.90
23729;DHT22;12045;60.214;24.724;2022-10-16T05:30:23;11.20;99.90
23729;DHT22;12045;60.214;24.724;2022-10-16T05:32:51;11.20;99.90
23729;DHT22;12045;60.214;24.724;2022-10-16T05:35:19;11.20;99.90
23729;DHT22;12045;60.214;24.724;2022-10-16T05:37:47;11.20;99.90
23729;DHT22;12045;60.214;24.724;2022-10-16T05:40:15;11.20;99.90
23729;DHT22;12045;60.214;24.724;2022-10-16T05:42:43;11.20;99.90
23729;DHT22;12045;60.214;24.724;2022-10-16T05:45:11;11.30;99.90
23729;DHT22;12045;60.214;24.724;2022-10-16T05:47:39;11.60;99.90
23729;DHT22;12045;60.214;24.724;2022-10-16T05:50:07;11.30;99.90
23729;DHT22;12045;60.214;24.724;2022-10-16T05:52:35;11.30;99.90
23729;DHT22;12045;60.214;24.724;2022-10-16T05:55:03;11.40;99.90
23729;DHT22;12045;60.214;24.724;2022-10-16T05:57:30;11.30;99.90
23729;DHT22;12045;60.214;24.724;2022-10-16T05:59:58;11.30;99.90
23729;DHT22;12045;60.214;24.724;2022-10-16T06:02:26;11.30;99.90
23729;DHT22;12045;60.214;24.724;2022-10-16T06:04:53;10.90;99.90
23729;DHT22;12045;60.214;24.724;2022-10-16T06:07:21;11.30;99.90
23729;DHT22;12045;60.214;24.724;2022-10-16T06:09:50;11.40;99.90
23729;DHT22;12045;60.214;24.724;2022-10-16T06:12:18;11.40;99.90
23729;DHT22;12045;60.214;24.724;2022-10-16T06:14:46;11.40;99.90
23729;DHT22;12045;60.214;24.724;2022-10-16T06:17:16;11.40;99.90
23729;DHT22;12045;60.214;24.724;2022-10-16T06:19:44;11.50;99.90
23729;DHT22;12045;60.214;24.724;2022-10-16T06:22:11;11.40;99.90
23729;DHT22;12045;60.214;24.724;2022-10-16T06:24:39;11.50;99.90
23729;DHT22;12045;60.214;24.724;2022-10-16T06:27:06;11.50;99.90
23729;DHT22;12045;60.214;24.724;2022-10-16T06:29:34;11.50;99.90
23729;DHT22;12045;60.214;24.724;2022-10-16T06:32:01;11.60;99.90
23729;DHT22;12045;60.214;24.724;2022-10-16T06:34:29;11.80;99.90
23729;DHT22;12045;60.214;24.724;2022-10-16T06:36:56;11.60;99.90
23729;DHT22;12045;60.214;24.724;2022-10-16T06:39:24;11.60;99.90
23729;DHT22;12045;60.214;24.724;2022-10-16T06:41:51;11.60;99.90
23729;DHT22;12045;60.214;24.724;2022-10-16T06:44:19;11.60;99.90
23729;DHT22;12045;60.214;24.724;2022-10-16T06:46:46;11.60;99.90
23729;DHT22;12045;60.214;24.724;2022-10-16T06:49:14;11.60;99.90
23729;DHT22;12045;60.214;24.724;2022-10-16T06:51:48;11.60;99.90
23729;DHT22;12045;60.214;24.724;2022-10-16T06:54:15;11.60;99.90
23729;DHT22;12045;60.214;24.724;2022-10-16T06:56:43;11.60;99.90
23729;DHT22;12045;60.214;24.724;2022-10-16T06:59:11;11.70;99.90
23729;DHT22;12045;60.214;24.724;2022-10-16T07:01:39;11.70;99.90
23729;DHT22;12045;60.214;24.724;2022-10-16T07:04:06;11.70;99.90
23729;DHT22;12045;60.214;24.724;2022-10-16T07:06:34;11.70;99.90
23729;DHT22;12045;60.214;24.724;2022-10-16T07:09:07;11.70;99.90
23729;DHT22;12045;60.214;24.724;2022-10-16T07:11:37;11.70;99.90
23729;DHT22;12045;60.214;24.724;2022-10-16T07:14:15;11.70;99.90
23729;DHT22;12045;60.214;24.724;2022-10-16T07:16:42;11.80;99.90
23729;DHT22;12045;60.214;24.724;2022-10-16T07:19:10;11.80;99.90
23729;DHT22;12045;60.214;24.724;2022-10-16T07:21:39;11.80;99.90
23729;DHT22;12045;60.214;24.724;2022-10-16T07:24:12;11.70;99.90
23729;DHT22;12045;60.214;24.724;2022-10-16T07:26:43;11.80;99.90
23729;DHT22;12045;60.214;24.724;2022-10-16T07:29:19;11.80;99.90
23729;DHT22;12045;60.214;24.724;2022-10-16T07:31:48;12.50;99.90
23729;DHT22;12045;60.214;24.724;2022-10-16T07:34:17;11.90;99.90
23729;DHT22;12045;60.214;24.724;2022-10-16T07:36:48;11.80;99.90
23729;DHT22;12045;60.214;24.724;2022-10-16T07:39:16;11.90;99.90
23729;DHT22;12045;60.214;24.724;2022-10-16T07:41:43;11.90;99.90
23729;DHT22;12045;60.214;24.724;2022-10-16T07:44:11;11.90;99.90
23729;DHT22;12045;60.214;24.724;2022-10-16T07:46:38;11.90;99.90
23729;DHT22;12045;60.214;24.724;2022-10-16T07:49:06;11.90;99.90
23729;DHT22;12045;60.214;24.724;2022-10-16T07:51:33;11.90;99.90
23729;DHT22;12045;60.214;24.724;2022-10-16T07:54:01;11.90;99.90
23729;DHT22;12045;60.214;24.724;2022-10-16T07:56:30;12.00;99.90
23729;DHT22;12045;60.214;24.724;2022-10-16T07:58:59;12.00;99.90
23729;DHT22;12045;60.214;24.724;2022-10-16T08:01:26;12.10;99.90
23729;DHT22;12045;60.214;24.724;2022-10-16T08:03:54;12.10;99.90
23729;DHT22;12045;60.214;24.724;2022-10-16T08:06:22;12.10;99.90
23729;DHT22;12045;60.214;24.724;2022-10-16T08:08:57;12.10;99.90
23729;DHT22;12045;60.214;24.724;2022-10-16T08:11:27;12.10;99.90
23729;DHT22;12045;60.214;24.724;2022-10-16T08:13:54;11.50;99.90
23729;DHT22;12045;60.214;24.724;2022-10-16T08:16:22;12.20;99.90
23729;DHT22;12045;60.214;24.724;2022-10-16T08:18:50;12.10;99.90
23729;DHT22;12045;60.214;24.724;2022-10-16T08:21:21;12.00;99.90
23729;DHT22;12045;60.214;24.724;2022-10-16T08:23:50;12.10;99.90
23729;DHT22;12045;60.214;24.724;2022-10-16T08:26:25;12.10;99.90
23729;DHT22;12045;60.214;24.724;2022-10-16T08:28:54;12.10;99.90
23729;DHT22;12045;60.214;24.724;2022-10-16T08:31:22;12.20;99.90
23729;DHT22;12045;60.214;24.724;2022-10-16T08:33:50;12.20;99.90
23729;DHT22;12045;60.214;24.724;2022-10-16T08:36:18;12.20;99.90
23729;DHT22;12045;60.214;24.724;2022-10-16T08:38:49;12.20;99.90
23729;DHT22;12045;60.214;24.724;2022-10-16T08:49:40;12.30;99.90
23729;DHT22;12045;60.214;24.724;2022-10-16T08:52:13;12.20;99.90
23729;DHT22;12045;60.214;24.724;2022-10-16T08:54:44;12.20;99.90
23729;DHT22;12045;60.214;24.724;2022-10-16T08:57:17;12.30;99.90
23729;DHT22;12045;60.214;24.724;2022-10-16T08:59:51;12.30;99.90
23729;DHT22;12045;60.214;24.724;2022-10-16T09:02:34;12.30;99.90
23729;DHT22;12045;60.214;24.724;2022-10-16T09:06:19;12.40;99.90
23729;DHT22;12045;60.214;24.724;2022-10-16T09:08:36;12.40;99.90
23729;DHT22;12045;60.214;24.724;2022-10-16T09:19:53;12.60;99.90
23729;DHT22;12045;60.214;24.724;2022-10-16T09:22:26;12.60;99.90
23729;DHT22;12045;60.214;24.724;2022-10-16T09:24:59;12.70;99.90
23729;DHT22;12045;60.214;24.724;2022-10-16T09:27:27;12.70;99.90
23729;DHT22;12045;60.214;24.724;2022-10-16T09:29:56;12.70;99.90
23729;DHT22;12045;60.214;24.724;2022-10-16T09:32:26;12.70;99.90
23729;DHT22;12045;60.214;24.724;2022-10-16T09:34:55;12.70;99.90
23729;DHT22;12045;60.214;24.724;2022-10-16T09:37:25;12.80;99.90
23729;DHT22;12045;60.214;24.724;2022-10-16T09:39:54;12.80;99.90
23729;DHT22;12045;60.214;24.724;2022-10-16T09:42:33;12.80;99.90
23729;DHT22;12045;60.214;24.724;2022-10-16T09:45:02;12.80;99.90
23729;DHT22;12045;60.214;24.724;2022-10-16T09:47:31;13.50;99.90
23729;DHT22;12045;60.214;24.724;2022-10-16T09:50:02;12.90;99.90
23729;DHT22;12045;60.214;24.724;2022-10-16T09:52:32;12.90;99.90
23729;DHT22;12045;60.214;24.724;2022-10-16T09:55:02;12.90;99.90
23729;DHT22;12045;60.214;24.724;2022-10-16T09:57:30;13.50;99.90
23729;DHT22;12045;60.214;24.724;2022-10-16T09:59:58;13.00;99.90
23729;DHT22;12045;60.214;24.724;2022-10-16T10:02:36;13.00;99.90
23729;DHT22;12045;60.214;24.724;2022-10-16T10:05:20;13.10;99.90
23729;DHT22;12045;60.214;24.724;2022-10-16T10:07:58;13.00;99.90
23729;DHT22;12045;60.214;24.724;2022-10-16T10:10:31;13.00;99.90
23729;DHT22;12045;60.214;24.724;2022-10-16T10:12:59;13.10;99.90
23729;DHT22;12045;60.214;24.724;2022-10-16T10:15:35;13.40;99.90
23729;DHT22;12045;60.214;24.724;2022-10-16T10:18:20;13.10;99.90
23729;DHT22;12045;60.214;24.724;2022-10-16T10:21:02;13.20;99.90
23729;DHT22;12045;60.214;24.724;2022-10-16T10:23:32;13.10;99.90
23729;DHT22;12045;60.214;24.724;2022-10-16T10:26:08;13.10;99.90
23729;DHT22;12045;60.214;24.724;2022-10-16T10:28:50;13.10;99.90
23729;DHT22;12045;60.214;24.724;2022-10-16T10:31:44;13.00;99.90
23729;DHT22;12045;60.214;24.724;2022-10-16T10:37:34;13.10;99.90
23729;DHT22;12045;60.214;24.724;2022-10-16T10:45:59;13.30;99.90
23729;DHT22;12045;60.214;24.724;2022-10-16T10:57:26;13.20;99.90
23729;DHT22;12045;60.214;24.724;2022-10-16T11:11:13;13.20;99.90
23729;DHT22;12045;60.214;24.724;2022-10-16T11:16:40;13.20;99.90
23729;DHT22;12045;60.214;24.724;2022-10-16T11:24:53;13.00;99.90
23729;DHT22;12045;60.214;24.724;2022-10-16T11:27:37;13.00;99.90
23729;DHT22;12045;60.214;24.724;2022-10-16T11:30:18;13.10;99.90
23729;DHT22;12045;60.214;24.724;2022-10-16T11:53:15;12.90;99.90
23729;DHT22;12045;60.214;24.724;2022-10-16T11:55:45;12.90;99.90
23729;DHT22;12045;60.214;24.724;2022-10-16T11:58:36;12.90;99.90
23729;DHT22;12045;60.214;24.724;2022-10-16T12:08:46;12.70;99.90
23729;DHT22;12045;60.214;24.724;2022-10-16T12:16:55;12.60;99.90
23729;DHT22;12045;60.214;24.724;2022-10-16T12:19:26;12.70;99.90
23729;DHT22;12045;60.214;24.724;2022-10-16T12:22:02;12.70;99.90
23729;DHT22;12045;60.214;24.724;2022-10-16T12:24:42;12.60;99.90
23729;DHT22;12045;60.214;24.724;2022-10-16T12:27:39;12.60;99.90
23729;DHT22;12045;60.214;24.724;2022-10-16T12:30:18;12.60;99.90
23729;DHT22;12045;60.214;24.724;2022-10-16T12:32:54;12.60;99.90
23729;DHT22;12045;60.214;24.724;2022-10-16T12:35:25;12.70;99.90
23729;DHT22;12045;60.214;24.724;2022-10-16T12:37:54;12.60;99.90
23729;DHT22;12045;60.214;24.724;2022-10-16T12:40:33;12.70;99.90
23729;DHT22;12045;60.214;24.724;2022-10-16T12:46:20;12.80;99.90
23729;DHT22;12045;60.214;24.724;2022-10-16T12:48:48;12.80;99.90
23729;DHT22;12045;60.214;24.724;2022-10-16T12:51:36;13.10;99.90
23729;DHT22;12045;60.214;24.724;2022-10-16T13:06:15;12.90;99.90
23729;DHT22;12045;60.214;24.724;2022-10-16T13:09:19;12.90;99.90
23729;DHT22;12045;60.214;24.724;2022-10-16T13:12:06;13.00;99.90
23729;DHT22;12045;60.214;24.724;2022-10-16T13:27:55;12.80;99.90
23729;DHT22;12045;60.214;24.724;2022-10-16T13:30:26;12.90;99.90
23729;DHT22;12045;60.214;24.724;2022-10-16T13:33:48;12.90;99.90
23729;DHT22;12045;60.214;24.724;2022-10-16T13:35:51;12.90;99.90
23729;DHT22;12045;60.214;24.724;2022-10-16T13:38:22;12.80;99.90
23729;DHT22;12045;60.214;24.724;2022-10-16T13:40:50;12.80;99.90
23729;DHT22;12045;60.214;24.724;2022-10-16T13:43:21;12.80;99.90
23729;DHT22;12045;60.214;24.724;2022-10-16T13:46:04;12.70;99.90
23729;DHT22;12045;60.214;24.724;2022-10-16T13:48:33;12.60;99.90
23729;DHT22;12045;60.214;24.724;2022-10-16T13:51:06;12.50;99.90
23729;DHT22;12045;60.214;24.724;2022-10-16T13:53:35;12.50;99.90
23729;DHT22;12045;60.214;24.724;2022-10-16T13:56:05;12.50;99.90
23729;DHT22;12045;60.214;24.724;2022-10-16T13:58:33;12.50;99.90
23729;DHT22;12045;60.214;24.724;2022-10-16T14:01:04;12.50;99.90
23729;DHT22;12045;60.214;24.724;2022-10-16T14:03:35;12.50;99.90
23729;DHT22;12045;60.214;24.724;2022-10-16T14:06:05;12.50;99.90
23729;DHT22;12045;60.214;24.724;2022-10-16T14:08:33;12.50;99.90
23729;DHT22;12045;60.214;24.724;2022-10-16T14:11:02;12.50;99.90
23729;DHT22;12045;60.214;24.724;2022-10-16T14:13:34;12.60;99.90
23729;DHT22;12045;60.214;24.724;2022-10-16T14:16:07;12.60;99.90
23729;DHT22;12045;60.214;24.724;2022-10-16T14:18:37;12.70;99.90
23729;DHT22;12045;60.214;24.724;2022-10-16T14:21:07;12.70;99.90
23729;DHT22;12045;60.214;24.724;2022-10-16T14:23:40;12.70;99.90
23729;DHT22;12045;60.214;24.724;2022-10-16T14:28:36;12.70;99.90
23729;DHT22;12045;60.214;24.724;2022-10-16T14:31:26;12.70;99.90
23729;DHT22;12045;60.214;24.724;2022-10-16T14:33:54;12.80;99.90
23729;DHT22;12045;60.214;24.724;2022-10-16T14:36:22;12.80;99.90
23729;DHT22;12045;60.214;24.724;2022-10-16T14:39:05;12.80;99.90
23729;DHT22;12045;60.214;24.724;2022-10-16T14:41:44;12.90;99.90
23729;DHT22;12045;60.214;24.724;2022-10-16T14:44:13;12.90;99.90
23729;DHT22;12045;60.214;24.724;2022-10-16T14:46:42;12.90;99.90
23729;DHT22;12045;60.214;24.724;2022-10-16T14:49:16;12.90;99.90
23729;DHT22;12045;60.214;24.724;2022-10-16T14:51:44;13.00;99.90
23729;DHT22;12045;60.214;24.724;2022-10-16T14:54:15;13.00;99.90
23729;DHT22;12045;60.214;24.724;2022-10-16T14:56:50;13.00;99.90
23729;DHT22;12045;60.214;24.724;2022-10-16T14:59:39;12.90;99.90
23729;DHT22;12045;60.214;24.724;2022-10-16T15:02:25;13.00;99.90
23729;DHT22;12045;60.214;24.724;2022-10-16T15:04:54;13.00;99.90
23729;DHT22;12045;60.214;24.724;2022-10-16T15:07:22;13.00;99.90
23729;DHT22;12045;60.214;24.724;2022-10-16T15:09:50;13.00;99.90
23729;DHT22;12045;60.214;24.724;2022-10-16T15:12:18;13.00;99.90
23729;DHT22;12045;60.214;24.724;2022-10-16T15:14:46;13.00;99.90
23729;DHT22;12045;60.214;24.724;2022-10-16T15:17:13;13.30;99.90
23729;DHT22;12045;60.214;24.724;2022-10-16T15:19:45;13.00;99.90
23729;DHT22;12045;60.214;24.724;2022-10-16T15:22:13;13.10;99.90
23729;DHT22;12045;60.214;24.724;2022-10-16T15:24:40;13.00;99.90
23729;DHT22;12045;60.214;24.724;2022-10-16T15:27:08;13.00;99.90
23729;DHT22;12045;60.214;24.724;2022-10-16T15:29:36;13.00;99.90
23729;DHT22;12045;60.214;24.724;2022-10-16T15:32:03;13.00;99.90
23729;DHT22;12045;60.214;24.724;2022-10-16T15:34:31;12.90;99.90
23729;DHT22;12045;60.214;24.724;2022-10-16T15:37:03;12.90;99.90
23729;DHT22;12045;60.214;24.724;2022-10-16T15:39:30;12.90;99.90
23729;DHT22;12045;60.214;24.724;2022-10-16T15:41:58;12.90;99.90
23729;DHT22;12045;60.214;24.724;2022-10-16T15:44:26;12.80;99.90
23729;DHT22;12045;60.214;24.724;2022-10-16T15:46:57;12.70;99.90
23729;DHT22;12045;60.214;24.724;2022-10-16T15:49:25;12.90;99.90
23729;DHT22;12045;60.214;24.724;2022-10-16T15:51:54;12.90;99.90
23729;DHT22;12045;60.214;24.724;2022-10-16T15:54:22;12.80;99.90
23729;DHT22;12045;60.214;24.724;2022-10-16T15:56:50;12.80;99.90
23729;DHT22;12045;60.214;24.724;2022-10-16T15:59:17;12.60;99.90
23729;DHT22;12045;60.214;24.724;2022-10-16T16:01:45;12.80;99.90
23729;DHT22;12045;60.214;24.724;2022-10-16T16:04:13;12.80;99.90
23729;DHT22;12045;60.214;24.724;2022-10-16T16:07:01;12.80;99.90
23729;DHT22;12045;60.214;24.724;2022-10-16T16:09:29;12.80;99.90
23729;DHT22;12045;60.214;24.724;2022-10-16T16:11:56;12.80;99.90
23729;DHT22;12045;60.214;24.724;2022-10-16T16:14:28;12.80;99.90
23729;DHT22;12045;60.214;24.724;2022-10-16T16:16:56;12.80;99.90
23729;DHT22;12045;60.214;24.724;2022-10-16T16:19:24;12.80;99.90
23729;DHT22;12045;60.214;24.724;2022-10-16T16:21:54;12.80;99.90
23729;DHT22;12045;60.214;24.724;2022-10-16T16:24:22;12.80;99.90
23729;DHT22;12045;60.214;24.724;2022-10-16T16:26:50;12.70;99.90
23729;DHT22;12045;60.214;24.724;2022-10-16T16:29:17;13.20;99.90
23729;DHT22;12045;60.214;24.724;2022-10-16T16:31:45;12.80;99.90
23729;DHT22;12045;60.214;24.724;2022-10-16T16:34:14;12.80;99.90
23729;DHT22;12045;60.214;24.724;2022-10-16T16:36:42;12.80;99.90
23729;DHT22;12045;60.214;24.724;2022-10-16T16:39:10;12.80;99.90
23729;DHT22;12045;60.214;24.724;2022-10-16T16:41:38;12.80;99.90
23729;DHT22;12045;60.214;24.724;2022-10-16T16:44:07;13.10;99.90
23729;DHT22;12045;60.214;24.724;2022-10-16T16:46:36;12.90;99.90
23729;DHT22;12045;60.214;24.724;2022-10-16T16:49:05;12.90;99.90
23729;DHT22;12045;60.214;24.724;2022-10-16T16:51:33;12.80;99.90
23729;DHT22;12045;60.214;24.724;2022-10-16T16:54:06;12.80;99.90
23729;DHT22;12045;60.214;24.724;2022-10-16T16:56:34;12.80;99.90
23729;DHT22;12045;60.214;24.724;2022-10-16T16:59:02;12.80;99.90
23729;DHT22;12045;60.214;24.724;2022-10-16T17:01:30;12.90;99.90
23729;DHT22;12045;60.214;24.724;2022-10-16T17:04:01;12.90;99.90
23729;DHT22;12045;60.214;24.724;2022-10-16T17:06:29;12.90;99.90
23729;DHT22;12045;60.214;24.724;2022-10-16T17:08:58;12.90;99.90
23729;DHT22;12045;60.214;24.724;2022-10-16T17:11:27;12.90;99.90
23729;DHT22;12045;60.214;24.724;2022-10-16T17:13:56;12.90;99.90
23729;DHT22;12045;60.214;24.724;2022-10-16T17:16:30;12.90;99.90
23729;DHT22;12045;60.214;24.724;2022-10-16T17:19:07;12.90;99.90
23729;DHT22;12045;60.214;24.724;2022-10-16T17:21:36;12.90;99.90
23729;DHT22;12045;60.214;24.724;2022-10-16T17:24:04;12.60;99.90
23729;DHT22;12045;60.214;24.724;2022-10-16T17:26:32;12.90;99.90
23729;DHT22;12045;60.214;24.724;2022-10-16T17:29:01;12.90;99.90
23729;DHT22;12045;60.214;24.724;2022-10-16T17:31:31;12.90;99.90
23729;DHT22;12045;60.214;24.724;2022-10-16T17:34:00;12.80;99.90
23729;DHT22;12045;60.214;24.724;2022-10-16T17:36:30;13.00;99.90
23729;DHT22;12045;60.214;24.724;2022-10-16T17:39:01;12.90;99.90
23729;DHT22;12045;60.214;24.724;2022-10-16T17:41:31;13.00;99.90
23729;DHT22;12045;60.214;24.724;2022-10-16T17:43:59;13.00;99.90
23729;DHT22;12045;60.214;24.724;2022-10-16T17:46:27;13.00;99.90
23729;DHT22;12045;60.214;24.724;2022-10-16T17:48:54;12.90;99.90